sensor_id;sensor_type;location;lat;lon;timestamp;P1;durP1;ratioP1;P2;durP2;ratioP2
28028;SDS011;15345;59.364;18.016;2024-01-15T00:00:25;2.45;;;0.75;;
28028;SDS011;15345;59.364;18.016;2024-01-15T00:01:45;0.90;;;0.45;;
28028;SDS011;15345;59.364;18.016;2024-01-15T00:03:04;0.85;;;0.38;;
28028;SDS011;15345;59.364;18.016;2024-01-15T00:04:23;1.23;;;0.70;;
28028;SDS011;15345;59.364;18.016;2024-01-15T00:05:43;4.45;;;0.40;;
28028;SDS011;15345;59.364;18.016;2024-01-15T00:07:03;2.25;;;0.40;;
28028;SDS011;15345;59.364;18.016;2024-01-15T00:08:25;2.25;;;0.70;;
28028;SDS011;15345;59.364;18.016;2024-01-15T00:09:43;0.93;;;0.45;;
28028;SDS011;15345;59.364;18.016;2024-01-15T00:11:03;5.15;;;0.70;;
28028;SDS011;15345;59.364;18.016;2024-01-15T00:12:22;1.45;;;0.52;;
28028;SDS011;15345;59.364;18.016;2024-01-15T00:13:41;1.23;;;0.30;;
28028;SDS011;15345;59.364;18.016;2024-01-15T00:15:00;4.30;;;0.57;;
28028;SDS011;15345;59.364;18.016;2024-01-15T00:16:19;0.30;;;0.30;;
28028;SDS011;15345;59.364;18.016;2024-01-15T00:17:39;4.43;;;0.70;;
28028;SDS011;15345;59.364;18.016;2024-01-15T00:18:58;5.93;;;0.70;;
28028;SDS011;15345;59.364;18.016;2024-01-15T00:20:18;1.85;;;0.50;;
28028;SDS011;15345;59.364;18.016;2024-01-15T00:21:37;3.60;;;1.25;;
28028;SDS011;15345;59.364;18.016;2024-01-15T00:22:55;1.48;;;0.70;;
28028;SDS011;15345;59.364;18.016;2024-01-15T00:24:14;1.83;;;0.50;;
28028;SDS011;15345;59.364;18.016;2024-01-15T00:25:33;2.20;;;0.57;;
28028;SDS011;15345;59.364;18.016;2024-01-15T00:26:52;1.20;;;0.40;;
28028;SDS011;15345;59.364;18.016;2024-01-15T00:28:13;2.53;;;0.55;;
28028;SDS011;15345;59.364;18.016;2024-01-15T00:29:33;1.20;;;0.60;;
28028;SDS011;15345;59.364;18.016;2024-01-15T00:30:51;1.27;;;0.80;;
28028;SDS011;15345;59.364;18.016;2024-01-15T00:32:13;3.20;;;0.38;;
28028;SDS011;15345;59.364;18.016;2024-01-15T00:33:33;0.65;;;0.32;;
28028;SDS011;15345;59.364;18.016;2024-01-15T00:34:52;1.83;;;0.60;;
28028;SDS011;15345;59.364;18.016;2024-01-15T00:36:12;3.75;;;0.70;;
28028;SDS011;15345;59.364;18.016;2024-01-15T00:37:32;7.00;;;0.75;;
28028;SDS011;15345;59.364;18.016;2024-01-15T00:38:51;0.80;;;0.30;;
28028;SDS011;15345;59.364;18.016;2024-01-15T00:40:11;3.80;;;0.57;;
28028;SDS011;15345;59.364;18.016;2024-01-15T00:41:30;4.28;;;0.50;;
28028;SDS011;15345;59.364;18.016;2024-01-15T00:42:49;1.05;;;0.40;;
28028;SDS011;15345;59.364;18.016;2024-01-15T00:44:09;2.55;;;0.90;;
28028;SDS011;15345;59.364;18.016;2024-01-15T00:45:28;0.93;;;0.38;;
28028;SDS011;15345;59.364;18.016;2024-01-15T00:46:50;2.58;;;0.73;;
28028;SDS011;15345;59.364;18.016;2024-01-15T00:48:09;0.50;;;0.30;;
28028;SDS011;15345;59.364;18.016;2024-01-15T00:49:28;3.08;;;0.50;;
28028;SDS011;15345;59.364;18.016;2024-01-15T00:50:47;0.85;;;0.30;;
28028;SDS011;15345;59.364;18.016;2024-01-15T00:52:06;1.30;;;0.68;;
28028;SDS011;15345;59.364;18.016;2024-01-15T00:53:25;1.92;;;0.40;;
28028;SDS011;15345;59.364;18.016;2024-01-15T00:54:44;2.40;;;0.35;;
28028;SDS011;15345;59.364;18.016;2024-01-15T00:56:05;1.52;;;0.57;;
28028;SDS011;15345;59.364;18.016;2024-01-15T00:57:27;0.52;;;0.22;;
28028;SDS011;15345;59.364;18.016;2024-01-15T00:58:46;0.55;;;0.30;;
28028;SDS011;15345;59.364;18.016;2024-01-15T01:00:06;0.70;;;0.50;;
28028;SDS011;15345;59.364;18.016;2024-01-15T01:01:25;2.95;;;0.70;;
28028;SDS011;15345;59.364;18.016;2024-01-15T01:02:44;2.83;;;0.80;;
28028;SDS011;15345;59.364;18.016;2024-01-15T01:04:06;1.05;;;0.60;;
28028;SDS011;15345;59.364;18.016;2024-01-15T01:05:25;1.20;;;0.50;;
28028;SDS011;15345;59.364;18.016;2024-01-15T01:06:45;2.60;;;0.43;;
28028;SDS011;15345;59.364;18.016;2024-01-15T01:08:04;4.15;;;0.70;;
28028;SDS011;15345;59.364;18.016;2024-01-15T01:09:24;2.10;;;0.88;;
28028;SDS011;15345;59.364;18.016;2024-01-15T01:10:43;10.65;;;0.63;;
28028;SDS011;15345;59.364;18.016;2024-01-15T01:12:05;1.77;;;0.60;;
28028;SDS011;15345;59.364;18.016;2024-01-15T01:13:28;2.35;;;0.52;;
28028;SDS011;15345;59.364;18.016;2024-01-15T01:14:49;4.25;;;0.50;;
28028;SDS011;15345;59.364;18.016;2024-01-15T01:16:11;1.85;;;0.50;;
28028;SDS011;15345;59.364;18.016;2024-01-15T01:17:30;2.00;;;0.60;;
28028;SDS011;15345;59.364;18.016;2024-01-15T01:18:49;3.22;;;0.50;;
28028;SDS011;15345;59.364;18.016;2024-01-15T01:20:09;0.73;;;0.40;;
28028;SDS011;15345;59.364;18.016;2024-01-15T01:21:29;1.77;;;0.77;;
28028;SDS011;15345;59.364;18.016;2024-01-15T01:22:48;1.02;;;0.75;;
28028;SDS011;15345;59.364;18.016;2024-01-15T01:24:07;4.75;;;0.93;;
28028;SDS011;15345;59.364;18.016;2024-01-15T01:25:27;4.10;;;0.57;;
28028;SDS011;15345;59.364;18.016;2024-01-15T01:26:49;1.25;;;0.73;;
28028;SDS011;15345;59.364;18.016;2024-01-15T01:28:08;1.98;;;0.40;;
28028;SDS011;15345;59.364;18.016;2024-01-15T01:29:27;1.58;;;0.65;;
28028;SDS011;15345;59.364;18.016;2024-01-15T01:30:47;2.55;;;0.50;;
28028;SDS011;15345;59.364;18.016;2024-01-15T01:32:06;0.88;;;0.50;;
28028;SDS011;15345;59.364;18.016;2024-01-15T01:33:25;5.55;;;0.60;;
28028;SDS011;15345;59.364;18.016;2024-01-15T01:34:45;4.40;;;0.57;;
28028;SDS011;15345;59.364;18.016;2024-01-15T01:36:08;1.35;;;0.50;;
28028;SDS011;15345;59.364;18.016;2024-01-15T01:37:28;1.65;;;0.40;;
28028;SDS011;15345;59.364;18.016;2024-01-15T01:38:49;1.45;;;0.43;;
28028;SDS011;15345;59.364;18.016;2024-01-15T01:40:08;1.88;;;0.30;;
28028;SDS011;15345;59.364;18.016;2024-01-15T01:41:28;1.55;;;0.50;;
28028;SDS011;15345;59.364;18.016;2024-01-15T01:42:47;2.05;;;0.60;;
28028;SDS011;15345;59.364;18.016;2024-01-15T01:44:07;1.38;;;0.55;;
28028;SDS011;15345;59.364;18.016;2024-01-15T01:45:30;2.08;;;0.70;;
28028;SDS011;15345;59.364;18.016;2024-01-15T01:46:49;4.20;;;0.30;;
28028;SDS011;15345;59.364;18.016;2024-01-15T01:48:09;1.38;;;0.40;;
28028;SDS011;15345;59.364;18.016;2024-01-15T01:49:29;3.35;;;1.08;;
28028;SDS011;15345;59.364;18.016;2024-01-15T01:50:49;1.95;;;0.43;;
28028;SDS011;15345;59.364;18.016;2024-01-15T01:52:08;2.22;;;0.40;;
28028;SDS011;15345;59.364;18.016;2024-01-15T01:53:32;3.80;;;0.50;;
28028;SDS011;15345;59.364;18.016;2024-01-15T01:54:54;2.35;;;0.55;;
28028;SDS011;15345;59.364;18.016;2024-01-15T01:56:14;4.30;;;0.40;;
28028;SDS011;15345;59.364;18.016;2024-01-15T01:57:36;4.60;;;0.70;;
28028;SDS011;15345;59.364;18.016;2024-01-15T01:58:56;1.33;;;0.40;;
28028;SDS011;15345;59.364;18.016;2024-01-15T02:00:15;1.23;;;0.50;;
28028;SDS011;15345;59.364;18.016;2024-01-15T02:01:36;0.93;;;0.30;;
28028;SDS011;15345;59.364;18.016;2024-01-15T02:02:55;2.20;;;0.70;;
28028;SDS011;15345;59.364;18.016;2024-01-15T02:04:14;2.60;;;0.50;;
28028;SDS011;15345;59.364;18.016;2024-01-15T02:05:34;3.47;;;0.50;;
28028;SDS011;15345;59.364;18.016;2024-01-15T02:06:54;3.60;;;0.40;;
28028;SDS011;15345;59.364;18.016;2024-01-15T02:08:13;2.08;;;0.40;;
28028;SDS011;15345;59.364;18.016;2024-01-15T02:09:32;2.22;;;0.40;;
28028;SDS011;15345;59.364;18.016;2024-01-15T02:10:53;3.28;;;0.63;;
28028;SDS011;15345;59.364;18.016;2024-01-15T02:12:12;4.13;;;0.50;;
28028;SDS011;15345;59.364;18.016;2024-01-15T02:13:33;0.90;;;0.50;;
28028;SDS011;15345;59.364;18.016;2024-01-15T02:14:52;0.73;;;0.30;;
28028;SDS011;15345;59.364;18.016;2024-01-15T02:16:11;0.77;;;0.50;;
28028;SDS011;15345;59.364;18.016;2024-01-15T02:17:32;3.42;;;0.43;;
28028;SDS011;15345;59.364;18.016;2024-01-15T02:18:51;1.30;;;0.60;;
28028;SDS011;15345;59.364;18.016;2024-01-15T02:20:10;4.25;;;0.63;;
28028;SDS011;15345;59.364;18.016;2024-01-15T02:21:31;1.25;;;0.32;;
28028;SDS011;15345;59.364;18.016;2024-01-15T02:23:12;1.40;;;0.30;;
28028;SDS011;15345;59.364;18.016;2024-01-15T02:24:31;3.75;;;0.63;;
28028;SDS011;15345;59.364;18.016;2024-01-15T02:25:51;2.60;;;0.95;;
28028;SDS011;15345;59.364;18.016;2024-01-15T02:27:10;1.15;;;0.47;;
28028;SDS011;15345;59.364;18.016;2024-01-15T02:28:32;1.25;;;0.30;;
28028;SDS011;15345;59.364;18.016;2024-01-15T02:29:52;1.38;;;0.65;;
28028;SDS011;15345;59.364;18.016;2024-01-15T02:31:12;2.50;;;0.40;;
28028;SDS011;15345;59.364;18.016;2024-01-15T02:32:33;2.15;;;0.90;;
28028;SDS011;15345;59.364;18.016;2024-01-15T02:33:52;1.20;;;0.70;;
28028;SDS011;15345;59.364;18.016;2024-01-15T02:35:11;1.83;;;0.40;;
28028;SDS011;15345;59.364;18.016;2024-01-15T02:36:33;1.75;;;0.50;;
28028;SDS011;15345;59.364;18.016;2024-01-15T02:37:52;4.55;;;0.70;;
28028;SDS011;15345;59.364;18.016;2024-01-15T02:39:11;0.40;;;0.40;;
28028;SDS011;15345;59.364;18.016;2024-01-15T02:40:30;2.42;;;0.70;;
28028;SDS011;15345;59.364;18.016;2024-01-15T02:41:50;1.33;;;0.32;;
28028;SDS011;15345;59.364;18.016;2024-01-15T02:43:08;1.55;;;0.35;;
28028;SDS011;15345;59.364;18.016;2024-01-15T02:44:32;2.30;;;0.50;;
28028;SDS011;15345;59.364;18.016;2024-01-15T02:45:51;0.70;;;0.38;;
28028;SDS011;15345;59.364;18.016;2024-01-15T02:47:10;1.52;;;0.50;;
28028;SDS011;15345;59.364;18.016;2024-01-15T02:48:29;3.97;;;0.50;;
28028;SDS011;15345;59.364;18.016;2024-01-15T02:49:48;1.50;;;0.60;;
28028;SDS011;15345;59.364;18.016;2024-01-15T02:51:11;2.78;;;0.30;;
28028;SDS011;15345;59.364;18.016;2024-01-15T02:52:30;1.30;;;0.60;;
28028;SDS011;15345;59.364;18.016;2024-01-15T02:53:49;0.77;;;0.43;;
28028;SDS011;15345;59.364;18.016;2024-01-15T02:55:09;0.85;;;0.32;;
28028;SDS011;15345;59.364;18.016;2024-01-15T02:56:31;4.90;;;0.93;;
28028;SDS011;15345;59.364;18.016;2024-01-15T02:57:50;3.22;;;0.70;;
28028;SDS011;15345;59.364;18.016;2024-01-15T02:59:11;4.78;;;0.30;;
28028;SDS011;15345;59.364;18.016;2024-01-15T03:00:31;2.38;;;0.60;;
28028;SDS011;15345;59.364;18.016;2024-01-15T03:01:50;0.50;;;0.40;;
28028;SDS011;15345;59.364;18.016;2024-01-15T03:03:09;1.75;;;0.60;;
28028;SDS011;15345;59.364;18.016;2024-01-15T03:04:28;2.00;;;0.70;;
28028;SDS011;15345;59.364;18.016;2024-01-15T03:05:47;0.50;;;0.50;;
28028;SDS011;15345;59.364;18.016;2024-01-15T03:07:15;0.52;;;0.30;;
28028;SDS011;15345;59.364;18.016;2024-01-15T03:08:35;0.90;;;0.40;;
28028;SDS011;15345;59.364;18.016;2024-01-15T03:09:54;0.77;;;0.45;;
28028;SDS011;15345;59.364;18.016;2024-01-15T03:11:13;3.05;;;0.90;;
28028;SDS011;15345;59.364;18.016;2024-01-15T03:12:32;1.20;;;0.95;;
28028;SDS011;15345;59.364;18.016;2024-01-15T03:13:52;1.13;;;0.45;;
28028;SDS011;15345;59.364;18.016;2024-01-15T03:15:14;3.00;;;0.50;;
28028;SDS011;15345;59.364;18.016;2024-01-15T03:16:33;0.95;;;0.45;;
28028;SDS011;15345;59.364;18.016;2024-01-15T03:17:53;0.85;;;0.40;;
28028;SDS011;15345;59.364;18.016;2024-01-15T03:19:14;1.58;;;0.68;;
28028;SDS011;15345;59.364;18.016;2024-01-15T03:20:33;3.13;;;0.60;;
28028;SDS011;15345;59.364;18.016;2024-01-15T03:21:52;4.35;;;1.02;;
28028;SDS011;15345;59.364;18.016;2024-01-15T03:23:12;1.13;;;0.40;;
28028;SDS011;15345;59.364;18.016;2024-01-15T03:24:31;7.28;;;0.60;;
28028;SDS011;15345;59.364;18.016;2024-01-15T03:25:50;2.35;;;0.50;;
28028;SDS011;15345;59.364;18.016;2024-01-15T03:27:12;3.33;;;0.50;;
28028;SDS011;15345;59.364;18.016;2024-01-15T03:28:31;0.45;;;0.20;;
28028;SDS011;15345;59.364;18.016;2024-01-15T03:29:50;1.27;;;0.50;;
28028;SDS011;15345;59.364;18.016;2024-01-15T03:31:15;2.33;;;0.43;;
28028;SDS011;15345;59.364;18.016;2024-01-15T03:32:34;3.15;;;0.75;;
28028;SDS011;15345;59.364;18.016;2024-01-15T03:33:56;3.38;;;1.27;;
28028;SDS011;15345;59.364;18.016;2024-01-15T03:35:18;1.08;;;0.40;;
28028;SDS011;15345;59.364;18.016;2024-01-15T03:36:40;2.97;;;0.40;;
28028;SDS011;15345;59.364;18.016;2024-01-15T03:37:59;1.38;;;0.40;;
28028;SDS011;15345;59.364;18.016;2024-01-15T03:39:18;0.73;;;0.45;;
28028;SDS011;15345;59.364;18.016;2024-01-15T03:40:37;2.95;;;0.50;;
28028;SDS011;15345;59.364;18.016;2024-01-15T03:41:57;0.70;;;0.35;;
28028;SDS011;15345;59.364;18.016;2024-01-15T03:43:17;1.17;;;0.63;;
28028;SDS011;15345;59.364;18.016;2024-01-15T03:44:36;1.30;;;0.43;;
28028;SDS011;15345;59.364;18.016;2024-01-15T03:45:55;0.70;;;0.45;;
28028;SDS011;15345;59.364;18.016;2024-01-15T03:47:24;2.17;;;0.68;;
28028;SDS011;15345;59.364;18.016;2024-01-15T03:48:52;1.17;;;0.70;;
28028;SDS011;15345;59.364;18.016;2024-01-15T03:50:11;4.25;;;0.60;;
28028;SDS011;15345;59.364;18.016;2024-01-15T03:51:30;1.13;;;0.47;;
28028;SDS011;15345;59.364;18.016;2024-01-15T03:52:49;1.35;;;0.50;;
28028;SDS011;15345;59.364;18.016;2024-01-15T03:54:08;3.33;;;0.57;;
28028;SDS011;15345;59.364;18.016;2024-01-15T03:55:27;1.73;;;0.50;;
28028;SDS011;15345;59.364;18.016;2024-01-15T03:56:46;2.05;;;0.63;;
28028;SDS011;15345;59.364;18.016;2024-01-15T03:58:06;1.30;;;0.60;;
28028;SDS011;15345;59.364;18.016;2024-01-15T03:59:25;1.35;;;0.40;;
28028;SDS011;15345;59.364;18.016;2024-01-15T04:00:44;2.60;;;0.50;;
28028;SDS011;15345;59.364;18.016;2024-01-15T04:02:04;2.55;;;0.95;;
28028;SDS011;15345;59.364;18.016;2024-01-15T04:03:23;2.33;;;0.77;;
28028;SDS011;15345;59.364;18.016;2024-01-15T04:04:44;2.95;;;0.40;;
28028;SDS011;15345;59.364;18.016;2024-01-15T04:06:04;1.60;;;0.60;;
28028;SDS011;15345;59.364;18.016;2024-01-15T04:07:33;2.72;;;0.60;;
28028;SDS011;15345;59.364;18.016;2024-01-15T04:08:59;2.08;;;0.75;;
28028;SDS011;15345;59.364;18.016;2024-01-15T04:10:19;0.70;;;0.63;;
28028;SDS011;15345;59.364;18.016;2024-01-15T04:11:39;1.73;;;0.50;;
28028;SDS011;15345;59.364;18.016;2024-01-15T04:13:00;1.42;;;0.95;;
28028;SDS011;15345;59.364;18.016;2024-01-15T04:14:20;0.70;;;0.70;;
28028;SDS011;15345;59.364;18.016;2024-01-15T04:15:42;1.20;;;0.50;;
28028;SDS011;15345;59.364;18.016;2024-01-15T04:17:03;6.97;;;0.70;;
28028;SDS011;15345;59.364;18.016;2024-01-15T04:18:27;2.05;;;0.70;;
28028;SDS011;15345;59.364;18.016;2024-01-15T04:19:49;1.67;;;0.70;;
28028;SDS011;15345;59.364;18.016;2024-01-15T04:21:11;5.97;;;0.90;;
28028;SDS011;15345;59.364;18.016;2024-01-15T04:22:30;2.50;;;0.68;;
28028;SDS011;15345;59.364;18.016;2024-01-15T04:23:49;2.42;;;0.70;;
28028;SDS011;15345;59.364;18.016;2024-01-15T04:25:09;0.80;;;0.60;;
28028;SDS011;15345;59.364;18.016;2024-01-15T04:26:28;2.15;;;0.68;;
28028;SDS011;15345;59.364;18.016;2024-01-15T04:27:47;1.60;;;0.70;;
28028;SDS011;15345;59.364;18.016;2024-01-15T04:29:05;1.67;;;0.75;;
28028;SDS011;15345;59.364;18.016;2024-01-15T04:30:25;2.70;;;0.68;;
28028;SDS011;15345;59.364;18.016;2024-01-15T04:31:44;0.80;;;0.63;;
28028;SDS011;15345;59.364;18.016;2024-01-15T04:33:04;3.67;;;0.70;;
28028;SDS011;15345;59.364;18.016;2024-01-15T04:34:26;2.17;;;0.70;;
28028;SDS011;15345;59.364;18.016;2024-01-15T04:35:48;0.63;;;0.40;;
28028;SDS011;15345;59.364;18.016;2024-01-15T04:37:14;2.13;;;0.73;;
28028;SDS011;15345;59.364;18.016;2024-01-15T04:38:33;2.20;;;0.80;;
28028;SDS011;15345;59.364;18.016;2024-01-15T04:39:54;2.83;;;1.08;;
28028;SDS011;15345;59.364;18.016;2024-01-15T04:41:14;2.95;;;0.60;;
28028;SDS011;15345;59.364;18.016;2024-01-15T04:42:34;7.47;;;0.90;;
28028;SDS011;15345;59.364;18.016;2024-01-15T04:43:53;1.10;;;0.82;;
28028;SDS011;15345;59.364;18.016;2024-01-15T04:45:14;0.50;;;0.50;;
28028;SDS011;15345;59.364;18.016;2024-01-15T04:46:33;0.88;;;0.70;;
28028;SDS011;15345;59.364;18.016;2024-01-15T04:47:52;0.80;;;0.80;;
28028;SDS011;15345;59.364;18.016;2024-01-15T04:49:11;4.32;;;1.10;;
28028;SDS011;15345;59.364;18.016;2024-01-15T04:50:30;2.85;;;0.98;;
28028;SDS011;15345;59.364;18.016;2024-01-15T04:51:50;1.02;;;0.80;;
28028;SDS011;15345;59.364;18.016;2024-01-15T04:53:09;12.30;;;1.23;;
28028;SDS011;15345;59.364;18.016;2024-01-15T04:54:28;5.25;;;1.02;;
28028;SDS011;15345;59.364;18.016;2024-01-15T04:55:50;1.15;;;0.80;;
28028;SDS011;15345;59.364;18.016;2024-01-15T04:57:09;0.60;;;0.60;;
28028;SDS011;15345;59.364;18.016;2024-01-15T04:58:28;2.00;;;1.00;;
28028;SDS011;15345;59.364;18.016;2024-01-15T04:59:49;2.22;;;0.70;;
28028;SDS011;15345;59.364;18.016;2024-01-15T05:01:08;1.38;;;0.80;;
28028;SDS011;15345;59.364;18.016;2024-01-15T05:02:28;2.13;;;1.27;;
28028;SDS011;15345;59.364;18.016;2024-01-15T05:03:47;2.80;;;1.27;;
28028;SDS011;15345;59.364;18.016;2024-01-15T05:05:07;2.33;;;0.95;;
28028;SDS011;15345;59.364;18.016;2024-01-15T05:06:26;0.80;;;0.80;;
28028;SDS011;15345;59.364;18.016;2024-01-15T05:07:49;0.70;;;0.70;;
28028;SDS011;15345;59.364;18.016;2024-01-15T05:09:08;1.50;;;1.00;;
28028;SDS011;15345;59.364;18.016;2024-01-15T05:10:27;0.98;;;0.80;;
28028;SDS011;15345;59.364;18.016;2024-01-15T05:11:46;2.05;;;1.00;;
28028;SDS011;15345;59.364;18.016;2024-01-15T05:13:05;1.92;;;1.40;;
28028;SDS011;15345;59.364;18.016;2024-01-15T05:14:30;1.00;;;0.80;;
28028;SDS011;15345;59.364;18.016;2024-01-15T05:15:49;1.10;;;0.77;;
28028;SDS011;15345;59.364;18.016;2024-01-15T05:17:08;2.40;;;0.93;;
28028;SDS011;15345;59.364;18.016;2024-01-15T05:18:40;1.42;;;1.17;;
28028;SDS011;15345;59.364;18.016;2024-01-15T05:20:02;1.02;;;0.88;;
28028;SDS011;15345;59.364;18.016;2024-01-15T05:21:25;1.25;;;0.85;;
28028;SDS011;15345;59.364;18.016;2024-01-15T05:22:47;2.10;;;1.10;;
28028;SDS011;15345;59.364;18.016;2024-01-15T05:24:05;3.95;;;1.38;;
28028;SDS011;15345;59.364;18.016;2024-01-15T05:25:25;2.05;;;1.10;;
28028;SDS011;15345;59.364;18.016;2024-01-15T05:26:44;3.28;;;1.20;;
28028;SDS011;15345;59.364;18.016;2024-01-15T05:28:04;1.80;;;1.00;;
28028;SDS011;15345;59.364;18.016;2024-01-15T05:29:25;1.20;;;1.10;;
28028;SDS011;15345;59.364;18.016;2024-01-15T05:30:47;5.70;;;1.40;;
28028;SDS011;15345;59.364;18.016;2024-01-15T05:32:06;3.90;;;1.35;;
28028;SDS011;15345;59.364;18.016;2024-01-15T05:33:25;6.22;;;1.25;;
28028;SDS011;15345;59.364;18.016;2024-01-15T05:34:44;1.90;;;0.80;;
28028;SDS011;15345;59.364;18.016;2024-01-15T05:37:32;2.10;;;1.60;;
28028;SDS011;15345;59.364;18.016;2024-01-15T05:38:52;1.98;;;1.23;;
28028;SDS011;15345;59.364;18.016;2024-01-15T05:40:14;1.95;;;1.00;;
28028;SDS011;15345;59.364;18.016;2024-01-15T05:41:48;1.38;;;1.20;;
28028;SDS011;15345;59.364;18.016;2024-01-15T05:43:20;2.80;;;1.30;;
28028;SDS011;15345;59.364;18.016;2024-01-15T05:44:59;1.20;;;1.10;;
28028;SDS011;15345;59.364;18.016;2024-01-15T05:46:30;1.50;;;1.23;;
28028;SDS011;15345;59.364;18.016;2024-01-15T05:49:41;2.63;;;1.08;;
28028;SDS011;15345;59.364;18.016;2024-01-15T05:52:51;6.40;;;1.42;;
28028;SDS011;15345;59.364;18.016;2024-01-15T05:54:21;1.08;;;0.93;;
28028;SDS011;15345;59.364;18.016;2024-01-15T05:59:48;2.92;;;1.23;;
28028;SDS011;15345;59.364;18.016;2024-01-15T06:01:13;3.20;;;1.15;;
28028;SDS011;15345;59.364;18.016;2024-01-15T06:02:37;3.60;;;1.17;;
28028;SDS011;15345;59.364;18.016;2024-01-15T06:05:50;4.07;;;1.08;;
28028;SDS011;15345;59.364;18.016;2024-01-15T06:07:11;2.40;;;1.17;;
28028;SDS011;15345;59.364;18.016;2024-01-15T06:08:30;1.83;;;1.40;;
28028;SDS011;15345;59.364;18.016;2024-01-15T06:09:52;1.40;;;1.30;;
28028;SDS011;15345;59.364;18.016;2024-01-15T06:11:14;2.63;;;1.20;;
28028;SDS011;15345;59.364;18.016;2024-01-15T06:12:35;2.83;;;1.23;;
28028;SDS011;15345;59.364;18.016;2024-01-15T06:14:03;2.40;;;1.15;;
28028;SDS011;15345;59.364;18.016;2024-01-15T06:15:39;3.40;;;1.25;;
28028;SDS011;15345;59.364;18.016;2024-01-15T06:17:36;7.55;;;1.75;;
28028;SDS011;15345;59.364;18.016;2024-01-15T06:18:56;2.47;;;1.52;;
28028;SDS011;15345;59.364;18.016;2024-01-15T06:20:20;1.10;;;1.00;;
28028;SDS011;15345;59.364;18.016;2024-01-15T06:23:23;1.02;;;0.93;;
28028;SDS011;15345;59.364;18.016;2024-01-15T06:24:48;2.67;;;1.48;;
28028;SDS011;15345;59.364;18.016;2024-01-15T06:26:15;2.58;;;1.90;;
28028;SDS011;15345;59.364;18.016;2024-01-15T06:27:34;4.07;;;1.40;;
28028;SDS011;15345;59.364;18.016;2024-01-15T06:28:53;2.38;;;1.40;;
28028;SDS011;15345;59.364;18.016;2024-01-15T06:32:02;3.92;;;1.58;;
28028;SDS011;15345;59.364;18.016;2024-01-15T06:33:29;3.50;;;1.83;;
28028;SDS011;15345;59.364;18.016;2024-01-15T06:35:16;5.50;;;2.15;;
28028;SDS011;15345;59.364;18.016;2024-01-15T06:36:38;1.98;;;1.63;;
28028;SDS011;15345;59.364;18.016;2024-01-15T06:37:57;7.15;;;1.92;;
28028;SDS011;15345;59.364;18.016;2024-01-15T06:39:27;3.42;;;2.25;;
28028;SDS011;15345;59.364;18.016;2024-01-15T06:41:18;3.67;;;2.00;;
28028;SDS011;15345;59.364;18.016;2024-01-15T06:42:38;3.88;;;2.10;;
28028;SDS011;15345;59.364;18.016;2024-01-15T06:45:46;3.72;;;2.00;;
28028;SDS011;15345;59.364;18.016;2024-01-15T06:47:09;2.40;;;1.73;;
28028;SDS011;15345;59.364;18.016;2024-01-15T06:48:31;4.57;;;2.30;;
28028;SDS011;15345;59.364;18.016;2024-01-15T06:50:10;2.15;;;1.95;;
28028;SDS011;15345;59.364;18.016;2024-01-15T06:51:34;5.32;;;2.30;;
28028;SDS011;15345;59.364;18.016;2024-01-15T06:53:16;2.92;;;2.45;;
28028;SDS011;15345;59.364;18.016;2024-01-15T06:54:38;3.13;;;2.10;;
28028;SDS011;15345;59.364;18.016;2024-01-15T06:55:58;4.32;;;2.50;;
28028;SDS011;15345;59.364;18.016;2024-01-15T06:58:58;15.45;;;2.55;;
28028;SDS011;15345;59.364;18.016;2024-01-15T07:01:54;6.65;;;2.60;;
28028;SDS011;15345;59.364;18.016;2024-01-15T07:03:16;5.10;;;2.55;;
28028;SDS011;15345;59.364;18.016;2024-01-15T07:04:41;2.95;;;1.77;;
28028;SDS011;15345;59.364;18.016;2024-01-15T07:06:11;6.22;;;2.47;;
28028;SDS011;15345;59.364;18.016;2024-01-15T07:07:38;3.35;;;2.30;;
28028;SDS011;15345;59.364;18.016;2024-01-15T07:08:58;4.15;;;2.38;;
28028;SDS011;15345;59.364;18.016;2024-01-15T07:11:47;2.38;;;2.08;;
28028;SDS011;15345;59.364;18.016;2024-01-15T07:13:09;2.97;;;2.22;;
28028;SDS011;15345;59.364;18.016;2024-01-15T07:14:28;3.65;;;2.13;;
28028;SDS011;15345;59.364;18.016;2024-01-15T07:15:50;3.28;;;2.15;;
28028;SDS011;15345;59.364;18.016;2024-01-15T07:17:18;2.30;;;2.08;;
28028;SDS011;15345;59.364;18.016;2024-01-15T07:18:45;3.53;;;1.90;;
28028;SDS011;15345;59.364;18.016;2024-01-15T07:20:13;2.60;;;1.70;;
28028;SDS011;15345;59.364;18.016;2024-01-15T07:21:36;4.40;;;1.75;;
28028;SDS011;15345;59.364;18.016;2024-01-15T07:22:59;3.22;;;1.77;;
28028;SDS011;15345;59.364;18.016;2024-01-15T07:24:24;1.95;;;1.73;;
28028;SDS011;15345;59.364;18.016;2024-01-15T07:25:46;2.33;;;1.58;;
28028;SDS011;15345;59.364;18.016;2024-01-15T07:27:05;3.15;;;1.50;;
28028;SDS011;15345;59.364;18.016;2024-01-15T07:28:31;3.58;;;1.85;;
28028;SDS011;15345;59.364;18.016;2024-01-15T07:29:53;1.58;;;1.48;;
28028;SDS011;15345;59.364;18.016;2024-01-15T07:31:12;3.97;;;1.80;;
28028;SDS011;15345;59.364;18.016;2024-01-15T07:32:35;2.40;;;1.40;;
28028;SDS011;15345;59.364;18.016;2024-01-15T07:35:46;1.52;;;1.42;;
28028;SDS011;15345;59.364;18.016;2024-01-15T07:37:05;2.70;;;1.40;;
28028;SDS011;15345;59.364;18.016;2024-01-15T07:38:24;2.50;;;1.40;;
28028;SDS011;15345;59.364;18.016;2024-01-15T07:39:46;2.30;;;1.25;;
28028;SDS011;15345;59.364;18.016;2024-01-15T07:41:08;1.75;;;1.20;;
28028;SDS011;15345;59.364;18.016;2024-01-15T07:42:28;2.13;;;1.10;;
28028;SDS011;15345;59.364;18.016;2024-01-15T07:43:50;1.60;;;0.90;;
28028;SDS011;15345;59.364;18.016;2024-01-15T07:45:15;1.55;;;1.10;;
28028;SDS011;15345;59.364;18.016;2024-01-15T07:48:36;1.60;;;0.95;;
28028;SDS011;15345;59.364;18.016;2024-01-15T07:50:00;1.08;;;0.70;;
28028;SDS011;15345;59.364;18.016;2024-01-15T07:51:33;1.27;;;0.70;;
28028;SDS011;15345;59.364;18.016;2024-01-15T07:53:01;4.07;;;1.23;;
28028;SDS011;15345;59.364;18.016;2024-01-15T07:54:31;4.45;;;0.80;;
28028;SDS011;15345;59.364;18.016;2024-01-15T07:55:57;1.23;;;1.00;;
28028;SDS011;15345;59.364;18.016;2024-01-15T07:57:45;1.23;;;0.75;;
28028;SDS011;15345;59.364;18.016;2024-01-15T07:59:08;5.10;;;1.00;;
28028;SDS011;15345;59.364;18.016;2024-01-15T08:00:45;1.00;;;0.57;;
28028;SDS011;15345;59.364;18.016;2024-01-15T08:02:21;2.47;;;0.68;;
28028;SDS011;15345;59.364;18.016;2024-01-15T08:14:05;4.07;;;0.70;;
28028;SDS011;15345;59.364;18.016;2024-01-15T08:16:06;1.48;;;0.80;;
28028;SDS011;15345;59.364;18.016;2024-01-15T08:17:45;2.63;;;0.60;;
28028;SDS011;15345;59.364;18.016;2024-01-15T08:19:25;2.90;;;0.40;;
28028;SDS011;15345;59.364;18.016;2024-01-15T08:20:55;3.28;;;0.68;;
28028;SDS011;15345;59.364;18.016;2024-01-15T08:22:14;2.25;;;0.60;;
28028;SDS011;15345;59.364;18.016;2024-01-15T08:23:34;2.40;;;0.57;;
28028;SDS011;15345;59.364;18.016;2024-01-15T08:25:17;2.60;;;0.50;;
28028;SDS011;15345;59.364;18.016;2024-01-15T08:30:37;1.60;;;0.55;;
28028;SDS011;15345;59.364;18.016;2024-01-15T08:32:03;3.25;;;0.85;;
28028;SDS011;15345;59.364;18.016;2024-01-15T08:43:52;1.48;;;0.57;;
28028;SDS011;15345;59.364;18.016;2024-01-15T08:45:14;1.02;;;0.68;;
28028;SDS011;15345;59.364;18.016;2024-01-15T08:46:49;2.47;;;0.50;;
28028;SDS011;15345;59.364;18.016;2024-01-15T08:48:23;0.93;;;0.50;;
28028;SDS011;15345;59.364;18.016;2024-01-15T08:53:17;2.42;;;0.50;;
28028;SDS011;15345;59.364;18.016;2024-01-15T08:54:36;1.20;;;0.45;;
28028;SDS011;15345;59.364;18.016;2024-01-15T08:58:34;2.50;;;0.60;;
28028;SDS011;15345;59.364;18.016;2024-01-15T09:21:01;3.15;;;0.47;;
28028;SDS011;15345;59.364;18.016;2024-01-15T09:35:51;1.75;;;0.70;;